全部
Nhill Airport (Nhill, Victoria) YNHL 天氣
|
Nhill, Victoria (YNHL)
晴天
多風 |
|
17 °C |
There is no TAF data available at YNHL or any nearby airports.
YNHL近期METAR歷史資料
| Date | Time (AEST) | Flight Rules | Wind Dir. | Speed | Type | Height AGL (ft) | Visibility | Temp (°C) | Temp (°F) | Dew Point (°C) | Dew Point (°F) | Rel. Humid. | Pressure | Density Altitude | Remarks |
|---|---|---|---|---|---|---|---|---|---|---|---|---|---|---|---|
| 06-五月 | 11:00 | n/a | 310° | 12 kt | Missing | 17° | 62° | 10° | 50° | 63% | 1021 mb | 464 ft | |||
| 06-五月 | 10:00 | n/a | 320° | 11 kt | Missing | 15° | 59° | 9° | 48° | 67% | 1021 mb | 224 ft | |||
| 06-五月 | 09:00 | n/a | 330° | 9 kt | Missing | 14° | 57° | 9° | 48° | 72% | 1022 mb | 74 ft | |||
| 06-五月 | 08:00 | n/a | 350° | 4 kt | Missing | 13° | 55° | 9° | 48° | 77% | 1022 mb | -46 ft | |||
| 06-五月 | 07:00 | n/a | 350° | 4 kt | Missing | 12° | 53° | 9° | 48° | 82% | 1021 mb | -136 ft | |||
| 06-五月 | 06:00 | n/a | 330° | 6 kt | Missing | 12° | 53° | 10° | 50° | 88% | 1022 mb | -166 ft | |||
| 06-五月 | 05:00 | n/a | 310° | 5 kt | Missing | 13° | 55° | 9° | 48° | 77% | 1021 mb | -16 ft | |||
| 06-五月 | 04:00 | n/a | 310° | 4 kt | Missing | 13° | 55° | 9° | 48° | 77% | 1022 mb | -46 ft | |||
| 06-五月 | 03:00 | n/a | 290° | 6 kt | Missing | 13° | 55° | 9° | 48° | 77% | 1022 mb | -46 ft | |||
| 06-五月 | 02:00 | n/a | 280° | 3 kt | Missing | 13° | 55° | 9° | 48° | 77% | 1022 mb | -46 ft | |||
| 06-五月 | 01:00 | n/a | 270° | 4 kt | Missing | 13° | 55° | 9° | 48° | 77% | 1023 mb | -75 ft | |||
| 06-五月 | 00:00 | n/a | 280° | 5 kt | Missing | 13° | 55° | 10° | 50° | 82% | 1023 mb | -75 ft | |||
| 05-五月 | 23:00 | n/a | Calm | Missing | 14° | 57° | 11° | 51° | 82% | 1023 mb | 45 ft | ||||
| 05-五月 | 22:00 | n/a | Calm | Missing | 14° | 57° | 11° | 51° | 82% | 1023 mb | 45 ft | ||||
| 05-五月 | 21:00 | n/a | 280° | 3 kt | Missing | 14° | 57° | 11° | 51° | 82% | 1023 mb | 45 ft | |||
| 05-五月 | 20:00 | n/a | 250° | 3 kt | Missing | 14° | 57° | 10° | 50° | 77% | 1023 mb | 45 ft | |||
| 05-五月 | 19:00 | n/a | Calm | Missing | 14° | 57° | 10° | 50° | 77% | 1023 mb | 45 ft | ||||
| 05-五月 | 18:00 | n/a | Calm | Missing | 15° | 59° | 9° | 48° | 67% | 1022 mb | 194 ft | ||||
| 05-五月 | 17:00 | n/a | 250° | 6 kt | Missing | 15° | 59° | 9° | 48° | 67% | 1022 mb | 194 ft | |||
| 05-五月 | 16:00 | n/a | 260° | 8 kt | Missing | 15° | 59° | 8° | 46° | 63% | 1022 mb | 194 ft | |||
| 05-五月 | 15:00 | n/a | 280° | 8 kt | Missing | 15° | 59° | 8° | 46° | 63% | 1022 mb | 194 ft | |||
| 05-五月 | 14:00 | n/a | 220° | 7 kt | Missing | 15° | 59° | 8° | 46° | 63% | 1021 mb | 224 ft | |||
| 05-五月 | 13:00 | n/a | 220° | 7 kt | Missing | 15° | 59° | 8° | 46° | 63% | 1022 mb | 194 ft | |||
| 05-五月 | 12:00 | n/a | 200° | 9 kt | Missing | 14° | 57° | 8° | 46° | 67% | 1022 mb | 74 ft |
登入
| 您的瀏覽器不支援. 升級您的瀏覽器 |
